Terminal Aerodrome Forecast
Issued by NWS

Home | Current Version | Previous Version | Text Only | Print | Product List | Glossary On
Versions: 1 2 3 4 5 6 7 8 9 10 11 12 13 14 15 16 17 18 19 20 21 22 23 24 25 26 27 28 29 30 31 32 33 34 35 36 37 38 39 40 41 42 43 44 45 46 47 48
000
FTUS45 KBOU 270540
TAFBJC
TAF
KBJC 270540Z 2706/2806 VRB03KT P6SM SCT028 BKN035 BKN220
     FM270800 VRB05KT P6SM SCT040 BKN220
     FM271000 18007KT P6SM FEW050 SCT220
     FM271900 12006KT P6SM FEW080 SCT120
     FM272200 04006KT P6SM SCT060 BKN100 BKN220
     FM280300 16008KT P6SM VCSH SCT030 BKN050 OVC080=

USA.gov is the U.S. government's official web portal to all federal, state and local government web resources and services.